sensor_id;sensor_type;location;lat;lon;timestamp;temperature;humidity
67273;DHT22;54190;49.770;9.250;2022-12-07T00:01:29;2.60;99.90
67273;DHT22;54190;49.770;9.250;2022-12-07T00:03:57;2.70;99.90
67273;DHT22;54190;49.770;9.250;2022-12-07T00:06:26;2.70;99.90
67273;DHT22;54190;49.770;9.250;2022-12-07T00:08:51;2.70;99.90
67273;DHT22;54190;49.770;9.250;2022-12-07T00:11:19;2.70;99.90
67273;DHT22;54190;49.770;9.250;2022-12-07T00:13:46;2.80;99.90
67273;DHT22;54190;49.770;9.250;2022-12-07T00:16:15;2.80;99.90
67273;DHT22;54190;49.770;9.250;2022-12-07T00:18:43;2.70;99.90
67273;DHT22;54190;49.770;9.250;2022-12-07T00:21:15;2.60;99.90
67273;DHT22;54190;49.770;9.250;2022-12-07T00:23:41;2.60;99.90
67273;DHT22;54190;49.770;9.250;2022-12-07T00:26:10;2.70;99.90
67273;DHT22;54190;49.770;9.250;2022-12-07T00:28:36;2.70;99.90
67273;DHT22;54190;49.770;9.250;2022-12-07T00:31:08;2.70;99.90
67273;DHT22;54190;49.770;9.250;2022-12-07T00:33:35;2.70;99.90
67273;DHT22;54190;49.770;9.250;2022-12-07T00:36:03;2.60;99.90
67273;DHT22;54190;49.770;9.250;2022-12-07T00:38:30;2.60;99.90
67273;DHT22;54190;49.770;9.250;2022-12-07T00:41:02;2.60;99.90
67273;DHT22;54190;49.770;9.250;2022-12-07T00:43:28;2.60;99.90
67273;DHT22;54190;49.770;9.250;2022-12-07T00:45:54;2.60;99.90
67273;DHT22;54190;49.770;9.250;2022-12-07T00:48:21;2.60;99.90
67273;DHT22;54190;49.770;9.250;2022-12-07T00:50:47;2.70;99.90
67273;DHT22;54190;49.770;9.250;2022-12-07T00:53:13;2.60;99.90
67273;DHT22;54190;49.770;9.250;2022-12-07T00:55:39;2.60;99.90
67273;DHT22;54190;49.770;9.250;2022-12-07T00:58:05;2.70;99.90
67273;DHT22;54190;49.770;9.250;2022-12-07T01:00:31;2.70;99.90
67273;DHT22;54190;49.770;9.250;2022-12-07T01:02:56;2.80;99.90
67273;DHT22;54190;49.770;9.250;2022-12-07T01:05:22;2.70;99.90
67273;DHT22;54190;49.770;9.250;2022-12-07T01:07:48;2.70;99.90
67273;DHT22;54190;49.770;9.250;2022-12-07T01:10:14;2.80;99.90
67273;DHT22;54190;49.770;9.250;2022-12-07T01:12:40;2.70;99.90
67273;DHT22;54190;49.770;9.250;2022-12-07T01:15:07;2.80;99.90
67273;DHT22;54190;49.770;9.250;2022-12-07T01:17:33;2.70;99.90
67273;DHT22;54190;49.770;9.250;2022-12-07T01:19:59;2.70;99.90
67273;DHT22;54190;49.770;9.250;2022-12-07T01:22:24;2.60;99.90
67273;DHT22;54190;49.770;9.250;2022-12-07T01:24:50;2.60;99.90
67273;DHT22;54190;49.770;9.250;2022-12-07T01:27:16;2.50;99.90
67273;DHT22;54190;49.770;9.250;2022-12-07T01:29:42;2.60;99.90
67273;DHT22;54190;49.770;9.250;2022-12-07T01:32:07;2.70;99.90
67273;DHT22;54190;49.770;9.250;2022-12-07T01:34:33;2.60;99.90
67273;DHT22;54190;49.770;9.250;2022-12-07T01:36:58;2.70;99.90
67273;DHT22;54190;49.770;9.250;2022-12-07T01:39:25;2.70;99.90
67273;DHT22;54190;49.770;9.250;2022-12-07T01:41:52;2.60;99.90
67273;DHT22;54190;49.770;9.250;2022-12-07T01:44:22;2.60;99.90
67273;DHT22;54190;49.770;9.250;2022-12-07T01:47:06;2.60;99.90
67273;DHT22;54190;49.770;9.250;2022-12-07T01:52:14;2.60;99.90
67273;DHT22;54190;49.770;9.250;2022-12-07T01:54:43;2.60;99.90
67273;DHT22;54190;49.770;9.250;2022-12-07T01:57:10;2.50;99.90
67273;DHT22;54190;49.770;9.250;2022-12-07T01:59:37;2.50;99.90
67273;DHT22;54190;49.770;9.250;2022-12-07T02:02:07;2.40;99.90
67273;DHT22;54190;49.770;9.250;2022-12-07T02:04:35;2.40;99.90
67273;DHT22;54190;49.770;9.250;2022-12-07T02:07:02;2.40;99.90
67273;DHT22;54190;49.770;9.250;2022-12-07T02:09:28;2.40;99.90
67273;DHT22;54190;49.770;9.250;2022-12-07T02:11:54;2.40;99.90
67273;DHT22;54190;49.770;9.250;2022-12-07T02:14:21;2.40;99.90
67273;DHT22;54190;49.770;9.250;2022-12-07T02:23:38;2.50;99.90
67273;DHT22;54190;49.770;9.250;2022-12-07T02:31:36;2.50;99.90
67273;DHT22;54190;49.770;9.250;2022-12-07T02:34:09;2.60;99.90
67273;DHT22;54190;49.770;9.250;2022-12-07T02:36:43;2.60;99.90
67273;DHT22;54190;49.770;9.250;2022-12-07T02:39:17;2.60;99.90
67273;DHT22;54190;49.770;9.250;2022-12-07T02:41:51;2.60;99.90
67273;DHT22;54190;49.770;9.250;2022-12-07T02:44:22;2.70;99.90
67273;DHT22;54190;49.770;9.250;2022-12-07T02:47:05;2.70;99.90
67273;DHT22;54190;49.770;9.250;2022-12-07T02:49:33;2.60;99.90
67273;DHT22;54190;49.770;9.250;2022-12-07T02:51:59;2.60;99.90
67273;DHT22;54190;49.770;9.250;2022-12-07T02:54:24;2.60;99.90
67273;DHT22;54190;49.770;9.250;2022-12-07T02:57:08;2.60;99.90
67273;DHT22;54190;49.770;9.250;2022-12-07T03:13:46;2.60;99.90
67273;DHT22;54190;49.770;9.250;2022-12-07T03:16:18;2.70;99.90
67273;DHT22;54190;49.770;9.250;2022-12-07T03:18:51;2.70;99.90
67273;DHT22;54190;49.770;9.250;2022-12-07T03:21:27;2.80;99.90
67273;DHT22;54190;49.770;9.250;2022-12-07T03:23:58;2.80;99.90
67273;DHT22;54190;49.770;9.250;2022-12-07T03:26:34;2.80;99.90
67273;DHT22;54190;49.770;9.250;2022-12-07T03:29:07;2.80;99.90
67273;DHT22;54190;49.770;9.250;2022-12-07T03:31:38;2.80;99.90
67273;DHT22;54190;49.770;9.250;2022-12-07T03:34:18;2.80;99.90
67273;DHT22;54190;49.770;9.250;2022-12-07T03:36:56;2.80;99.90
67273;DHT22;54190;49.770;9.250;2022-12-07T03:39:31;2.80;99.90
67273;DHT22;54190;49.770;9.250;2022-12-07T03:41:59;2.80;99.90
67273;DHT22;54190;49.770;9.250;2022-12-07T03:44:26;2.80;99.90
67273;DHT22;54190;49.770;9.250;2022-12-07T03:47:13;2.80;99.90
67273;DHT22;54190;49.770;9.250;2022-12-07T03:49:45;2.80;99.90
67273;DHT22;54190;49.770;9.250;2022-12-07T03:52:24;2.90;99.90
67273;DHT22;54190;49.770;9.250;2022-12-07T03:55:18;2.90;99.90
67273;DHT22;54190;49.770;9.250;2022-12-07T03:57:48;2.90;99.90
67273;DHT22;54190;49.770;9.250;2022-12-07T04:00:15;2.90;99.90
67273;DHT22;54190;49.770;9.250;2022-12-07T04:02:41;2.90;99.90
67273;DHT22;54190;49.770;9.250;2022-12-07T04:05:08;2.90;99.90
67273;DHT22;54190;49.770;9.250;2022-12-07T04:07:34;2.90;99.90
67273;DHT22;54190;49.770;9.250;2022-12-07T04:09:59;2.80;99.90
67273;DHT22;54190;49.770;9.250;2022-12-07T04:12:25;2.90;99.90
67273;DHT22;54190;49.770;9.250;2022-12-07T04:14:51;2.90;99.90
67273;DHT22;54190;49.770;9.250;2022-12-07T04:17:17;2.90;99.90
67273;DHT22;54190;49.770;9.250;2022-12-07T04:19:42;2.90;99.90
67273;DHT22;54190;49.770;9.250;2022-12-07T04:22:08;2.80;99.90
67273;DHT22;54190;49.770;9.250;2022-12-07T04:24:34;2.80;99.90
67273;DHT22;54190;49.770;9.250;2022-12-07T04:27:00;2.80;99.90
67273;DHT22;54190;49.770;9.250;2022-12-07T04:29:26;2.80;99.90
67273;DHT22;54190;49.770;9.250;2022-12-07T04:31:52;2.80;99.90
67273;DHT22;54190;49.770;9.250;2022-12-07T04:34:19;2.80;99.90
67273;DHT22;54190;49.770;9.250;2022-12-07T04:36:46;2.90;99.90
67273;DHT22;54190;49.770;9.250;2022-12-07T04:39:29;2.90;99.90
67273;DHT22;54190;49.770;9.250;2022-12-07T04:41:56;2.90;99.90
67273;DHT22;54190;49.770;9.250;2022-12-07T04:44:24;2.90;99.90
67273;DHT22;54190;49.770;9.250;2022-12-07T04:46:50;2.90;99.90
67273;DHT22;54190;49.770;9.250;2022-12-07T04:49:17;2.90;99.90
67273;DHT22;54190;49.770;9.250;2022-12-07T04:51:43;2.90;99.90
67273;DHT22;54190;49.770;9.250;2022-12-07T04:54:09;2.90;99.90
67273;DHT22;54190;49.770;9.250;2022-12-07T04:56:35;3.00;99.90
67273;DHT22;54190;49.770;9.250;2022-12-07T04:59:01;3.00;99.90
67273;DHT22;54190;49.770;9.250;2022-12-07T05:01:27;3.00;99.90
67273;DHT22;54190;49.770;9.250;2022-12-07T05:03:52;3.00;99.90
67273;DHT22;54190;49.770;9.250;2022-12-07T05:06:18;3.00;99.90
67273;DHT22;54190;49.770;9.250;2022-12-07T05:08:44;3.00;99.90
67273;DHT22;54190;49.770;9.250;2022-12-07T05:11:11;3.00;99.90
67273;DHT22;54190;49.770;9.250;2022-12-07T05:14:00;3.00;99.90
67273;DHT22;54190;49.770;9.250;2022-12-07T05:16:26;2.90;99.90
67273;DHT22;54190;49.770;9.250;2022-12-07T05:18:51;3.00;99.90
67273;DHT22;54190;49.770;9.250;2022-12-07T05:21:17;2.90;99.90
67273;DHT22;54190;49.770;9.250;2022-12-07T05:23:43;2.90;99.90
67273;DHT22;54190;49.770;9.250;2022-12-07T05:26:08;2.90;99.90
67273;DHT22;54190;49.770;9.250;2022-12-07T05:28:34;2.90;99.90
67273;DHT22;54190;49.770;9.250;2022-12-07T05:31:00;2.80;99.90
67273;DHT22;54190;49.770;9.250;2022-12-07T05:33:25;2.90;99.90
67273;DHT22;54190;49.770;9.250;2022-12-07T05:35:51;2.90;99.90
67273;DHT22;54190;49.770;9.250;2022-12-07T05:38:17;2.90;99.90
67273;DHT22;54190;49.770;9.250;2022-12-07T05:40:42;2.80;99.90
67273;DHT22;54190;49.770;9.250;2022-12-07T05:43:08;2.80;99.90
67273;DHT22;54190;49.770;9.250;2022-12-07T05:45:34;2.80;99.90
67273;DHT22;54190;49.770;9.250;2022-12-07T05:47:59;2.80;99.90
67273;DHT22;54190;49.770;9.250;2022-12-07T05:50:25;2.90;99.90
67273;DHT22;54190;49.770;9.250;2022-12-07T05:52:59;2.80;99.90
67273;DHT22;54190;49.770;9.250;2022-12-07T05:55:25;2.90;99.90
67273;DHT22;54190;49.770;9.250;2022-12-07T05:57:51;2.90;99.90
67273;DHT22;54190;49.770;9.250;2022-12-07T06:00:35;2.90;99.90
67273;DHT22;54190;49.770;9.250;2022-12-07T06:03:00;2.90;99.90
67273;DHT22;54190;49.770;9.250;2022-12-07T06:05:26;2.90;99.90
67273;DHT22;54190;49.770;9.250;2022-12-07T06:07:52;2.90;99.90
67273;DHT22;54190;49.770;9.250;2022-12-07T06:10:17;2.90;99.90
67273;DHT22;54190;49.770;9.250;2022-12-07T06:12:43;2.90;99.90
67273;DHT22;54190;49.770;9.250;2022-12-07T06:15:12;2.90;99.90
67273;DHT22;54190;49.770;9.250;2022-12-07T06:17:38;2.90;99.90
67273;DHT22;54190;49.770;9.250;2022-12-07T06:20:05;2.90;99.90
67273;DHT22;54190;49.770;9.250;2022-12-07T06:22:31;2.90;99.90
67273;DHT22;54190;49.770;9.250;2022-12-07T06:24:57;2.90;99.90
67273;DHT22;54190;49.770;9.250;2022-12-07T06:27:22;2.90;99.90
67273;DHT22;54190;49.770;9.250;2022-12-07T06:29:48;3.00;99.90
67273;DHT22;54190;49.770;9.250;2022-12-07T06:32:14;3.00;99.90
67273;DHT22;54190;49.770;9.250;2022-12-07T06:34:39;3.00;99.90
67273;DHT22;54190;49.770;9.250;2022-12-07T06:37:05;3.00;99.90
67273;DHT22;54190;49.770;9.250;2022-12-07T06:39:31;3.00;99.90
67273;DHT22;54190;49.770;9.250;2022-12-07T06:41:57;3.00;99.90
67273;DHT22;54190;49.770;9.250;2022-12-07T06:44:23;3.00;99.90
67273;DHT22;54190;49.770;9.250;2022-12-07T06:46:50;3.10;99.90
67273;DHT22;54190;49.770;9.250;2022-12-07T06:49:16;3.10;99.90
67273;DHT22;54190;49.770;9.250;2022-12-07T06:51:42;3.10;99.90
67273;DHT22;54190;49.770;9.250;2022-12-07T06:54:09;3.00;99.90
67273;DHT22;54190;49.770;9.250;2022-12-07T06:56:35;3.00;99.90
67273;DHT22;54190;49.770;9.250;2022-12-07T06:59:01;3.00;99.90
67273;DHT22;54190;49.770;9.250;2022-12-07T07:01:27;3.00;99.90
67273;DHT22;54190;49.770;9.250;2022-12-07T07:03:53;3.10;99.90
67273;DHT22;54190;49.770;9.250;2022-12-07T07:06:19;3.10;99.90
67273;DHT22;54190;49.770;9.250;2022-12-07T07:08:44;3.00;99.90
67273;DHT22;54190;49.770;9.250;2022-12-07T07:11:10;3.00;99.90
67273;DHT22;54190;49.770;9.250;2022-12-07T07:13:36;3.10;99.90
67273;DHT22;54190;49.770;9.250;2022-12-07T07:16:02;3.10;99.90
67273;DHT22;54190;49.770;9.250;2022-12-07T07:18:28;3.10;99.90
67273;DHT22;54190;49.770;9.250;2022-12-07T07:20:54;3.10;99.90
67273;DHT22;54190;49.770;9.250;2022-12-07T07:23:21;3.10;99.90
67273;DHT22;54190;49.770;9.250;2022-12-07T07:25:47;3.10;99.90
67273;DHT22;54190;49.770;9.250;2022-12-07T07:28:13;3.10;99.90
67273;DHT22;54190;49.770;9.250;2022-12-07T07:30:39;3.10;99.90
67273;DHT22;54190;49.770;9.250;2022-12-07T07:33:05;3.10;99.90
67273;DHT22;54190;49.770;9.250;2022-12-07T07:35:32;3.10;99.90
67273;DHT22;54190;49.770;9.250;2022-12-07T07:37:59;3.10;99.90
67273;DHT22;54190;49.770;9.250;2022-12-07T07:40:25;3.10;99.90
67273;DHT22;54190;49.770;9.250;2022-12-07T07:42:52;3.10;99.90
67273;DHT22;54190;49.770;9.250;2022-12-07T07:45:19;3.10;99.90
67273;DHT22;54190;49.770;9.250;2022-12-07T07:47:45;3.10;99.90
67273;DHT22;54190;49.770;9.250;2022-12-07T07:50:11;3.10;99.90
67273;DHT22;54190;49.770;9.250;2022-12-07T07:52:37;3.10;99.90
67273;DHT22;54190;49.770;9.250;2022-12-07T07:55:03;3.20;99.90
67273;DHT22;54190;49.770;9.250;2022-12-07T07:57:28;3.20;99.90
67273;DHT22;54190;49.770;9.250;2022-12-07T07:59:54;3.20;99.90
67273;DHT22;54190;49.770;9.250;2022-12-07T08:02:21;3.20;99.90
67273;DHT22;54190;49.770;9.250;2022-12-07T08:04:47;3.20;99.90
67273;DHT22;54190;49.770;9.250;2022-12-07T08:07:14;3.20;99.90
67273;DHT22;54190;49.770;9.250;2022-12-07T08:09:40;3.20;99.90
67273;DHT22;54190;49.770;9.250;2022-12-07T08:12:06;3.20;99.90
67273;DHT22;54190;49.770;9.250;2022-12-07T08:14:32;3.20;99.90
67273;DHT22;54190;49.770;9.250;2022-12-07T08:16:58;3.20;99.90
67273;DHT22;54190;49.770;9.250;2022-12-07T08:19:24;3.20;99.90
67273;DHT22;54190;49.770;9.250;2022-12-07T08:21:49;3.30;99.90
67273;DHT22;54190;49.770;9.250;2022-12-07T08:24:15;3.30;99.90
67273;DHT22;54190;49.770;9.250;2022-12-07T08:26:42;3.30;99.90
67273;DHT22;54190;49.770;9.250;2022-12-07T08:29:08;3.30;99.90
67273;DHT22;54190;49.770;9.250;2022-12-07T08:31:34;3.30;99.90
67273;DHT22;54190;49.770;9.250;2022-12-07T08:33:59;3.30;99.90
67273;DHT22;54190;49.770;9.250;2022-12-07T08:36:26;3.30;99.90
67273;DHT22;54190;49.770;9.250;2022-12-07T08:38:52;3.40;99.90
67273;DHT22;54190;49.770;9.250;2022-12-07T08:41:18;3.40;99.90
67273;DHT22;54190;49.770;9.250;2022-12-07T08:43:44;3.40;99.90
67273;DHT22;54190;49.770;9.250;2022-12-07T08:46:23;3.40;99.90
67273;DHT22;54190;49.770;9.250;2022-12-07T08:48:54;3.40;99.90
67273;DHT22;54190;49.770;9.250;2022-12-07T08:51:22;3.40;99.90
67273;DHT22;54190;49.770;9.250;2022-12-07T08:53:49;3.40;99.90
67273;DHT22;54190;49.770;9.250;2022-12-07T08:56:15;3.40;99.90
67273;DHT22;54190;49.770;9.250;2022-12-07T08:58:41;3.40;99.90
67273;DHT22;54190;49.770;9.250;2022-12-07T09:01:07;3.40;99.90
67273;DHT22;54190;49.770;9.250;2022-12-07T09:03:32;3.50;99.90
67273;DHT22;54190;49.770;9.250;2022-12-07T09:05:59;3.50;99.90
67273;DHT22;54190;49.770;9.250;2022-12-07T09:08:29;3.50;99.90
67273;DHT22;54190;49.770;9.250;2022-12-07T09:10:56;3.50;99.90
67273;DHT22;54190;49.770;9.250;2022-12-07T09:13:22;3.50;99.90
67273;DHT22;54190;49.770;9.250;2022-12-07T09:15:48;3.60;99.90
67273;DHT22;54190;49.770;9.250;2022-12-07T09:18:13;3.60;99.90
67273;DHT22;54190;49.770;9.250;2022-12-07T09:20:39;3.60;99.90
67273;DHT22;54190;49.770;9.250;2022-12-07T09:23:06;3.60;99.90
67273;DHT22;54190;49.770;9.250;2022-12-07T09:25:33;3.60;99.90
67273;DHT22;54190;49.770;9.250;2022-12-07T09:27:59;3.60;99.90
67273;DHT22;54190;49.770;9.250;2022-12-07T09:30:26;3.60;99.90
67273;DHT22;54190;49.770;9.250;2022-12-07T09:32:55;3.60;99.90
67273;DHT22;54190;49.770;9.250;2022-12-07T09:35:22;3.60;99.90
67273;DHT22;54190;49.770;9.250;2022-12-07T09:37:48;3.70;99.90
67273;DHT22;54190;49.770;9.250;2022-12-07T09:40:15;3.70;99.90
67273;DHT22;54190;49.770;9.250;2022-12-07T09:42:45;3.70;99.90
67273;DHT22;54190;49.770;9.250;2022-12-07T09:45:34;3.70;99.90
67273;DHT22;54190;49.770;9.250;2022-12-07T09:48:02;3.80;99.90
67273;DHT22;54190;49.770;9.250;2022-12-07T09:50:29;3.80;99.90
67273;DHT22;54190;49.770;9.250;2022-12-07T09:53:07;3.80;99.90
67273;DHT22;54190;49.770;9.250;2022-12-07T09:55:33;3.90;99.90
67273;DHT22;54190;49.770;9.250;2022-12-07T09:58:01;3.90;99.90
67273;DHT22;54190;49.770;9.250;2022-12-07T10:00:27;4.00;99.90
67273;DHT22;54190;49.770;9.250;2022-12-07T10:02:59;4.10;99.90
67273;DHT22;54190;49.770;9.250;2022-12-07T10:05:36;4.20;99.90
67273;DHT22;54190;49.770;9.250;2022-12-07T10:08:03;4.30;99.90
67273;DHT22;54190;49.770;9.250;2022-12-07T10:10:34;4.30;99.90
67273;DHT22;54190;49.770;9.250;2022-12-07T10:13:03;4.40;99.90
67273;DHT22;54190;49.770;9.250;2022-12-07T10:15:58;4.40;99.90
67273;DHT22;54190;49.770;9.250;2022-12-07T10:21:21;4.50;99.90
67273;DHT22;54190;49.770;9.250;2022-12-07T10:26:38;4.50;99.90
67273;DHT22;54190;49.770;9.250;2022-12-07T10:29:17;4.50;99.90
67273;DHT22;54190;49.770;9.250;2022-12-07T10:31:45;4.50;99.90
67273;DHT22;54190;49.770;9.250;2022-12-07T10:34:22;4.50;99.90
67273;DHT22;54190;49.770;9.250;2022-12-07T10:36:50;4.50;99.90
67273;DHT22;54190;49.770;9.250;2022-12-07T10:39:21;4.50;99.90
67273;DHT22;54190;49.770;9.250;2022-12-07T10:41:55;4.60;99.90
67273;DHT22;54190;49.770;9.250;2022-12-07T10:44:23;4.60;99.90
67273;DHT22;54190;49.770;9.250;2022-12-07T10:47:17;4.60;99.90
67273;DHT22;54190;49.770;9.250;2022-12-07T10:50:06;4.60;99.90
67273;DHT22;54190;49.770;9.250;2022-12-07T11:01:28;4.60;99.90
67273;DHT22;54190;49.770;9.250;2022-12-07T11:06:28;4.60;99.90
67273;DHT22;54190;49.770;9.250;2022-12-07T11:12:33;4.60;99.90
67273;DHT22;54190;49.770;9.250;2022-12-07T11:15:04;4.70;99.90
67273;DHT22;54190;49.770;9.250;2022-12-07T11:17:56;4.70;99.90
67273;DHT22;54190;49.770;9.250;2022-12-07T11:26:24;4.70;99.90
67273;DHT22;54190;49.770;9.250;2022-12-07T11:32:13;4.70;99.90
67273;DHT22;54190;49.770;9.250;2022-12-07T11:37:19;4.90;99.90
67273;DHT22;54190;49.770;9.250;2022-12-07T11:40:15;4.80;99.90
67273;DHT22;54190;49.770;9.250;2022-12-07T11:43:13;4.70;99.90
67273;DHT22;54190;49.770;9.250;2022-12-07T11:45:37;4.70;99.90
67273;DHT22;54190;49.770;9.250;2022-12-07T11:48:20;4.70;99.90
67273;DHT22;54190;49.770;9.250;2022-12-07T11:50:54;4.70;99.90
67273;DHT22;54190;49.770;9.250;2022-12-07T11:53:44;4.60;99.90
67273;DHT22;54190;49.770;9.250;2022-12-07T11:56:22;4.70;99.90
67273;DHT22;54190;49.770;9.250;2022-12-07T11:58:54;4.70;99.90
67273;DHT22;54190;49.770;9.250;2022-12-07T12:03:50;4.70;99.90
67273;DHT22;54190;49.770;9.250;2022-12-07T12:06:16;4.70;99.90
67273;DHT22;54190;49.770;9.250;2022-12-07T12:08:59;4.60;99.90
67273;DHT22;54190;49.770;9.250;2022-12-07T12:11:49;4.60;99.90
67273;DHT22;54190;49.770;9.250;2022-12-07T12:20:23;4.60;99.90
67273;DHT22;54190;49.770;9.250;2022-12-07T12:23:09;4.60;99.90
67273;DHT22;54190;49.770;9.250;2022-12-07T12:28:03;4.60;99.90
67273;DHT22;54190;49.770;9.250;2022-12-07T12:30:39;4.60;99.90
67273;DHT22;54190;49.770;9.250;2022-12-07T12:33:14;4.60;99.90
67273;DHT22;54190;49.770;9.250;2022-12-07T12:35:42;4.60;99.90
67273;DHT22;54190;49.770;9.250;2022-12-07T12:38:34;4.60;99.90
67273;DHT22;54190;49.770;9.250;2022-12-07T12:46:54;4.60;99.90
67273;DHT22;54190;49.770;9.250;2022-12-07T12:54:35;4.60;99.90
67273;DHT22;54190;49.770;9.250;2022-12-07T12:57:23;4.50;99.90
67273;DHT22;54190;49.770;9.250;2022-12-07T13:04:52;4.60;99.90
67273;DHT22;54190;49.770;9.250;2022-12-07T13:10:33;4.60;99.90
67273;DHT22;54190;49.770;9.250;2022-12-07T13:34:05;4.70;99.90
67273;DHT22;54190;49.770;9.250;2022-12-07T13:36:51;4.70;99.90
67273;DHT22;54190;49.770;9.250;2022-12-07T13:39:22;4.80;99.90
67273;DHT22;54190;49.770;9.250;2022-12-07T13:41:53;4.80;99.90
67273;DHT22;54190;49.770;9.250;2022-12-07T13:44:21;4.70;99.90
67273;DHT22;54190;49.770;9.250;2022-12-07T13:49:51;4.70;99.90
67273;DHT22;54190;49.770;9.250;2022-12-07T13:52:24;4.70;99.90
67273;DHT22;54190;49.770;9.250;2022-12-07T13:55:00;4.70;99.90
67273;DHT22;54190;49.770;9.250;2022-12-07T13:57:28;4.70;99.90
67273;DHT22;54190;49.770;9.250;2022-12-07T13:59:56;4.70;99.90
67273;DHT22;54190;49.770;9.250;2022-12-07T14:02:28;4.80;99.90
67273;DHT22;54190;49.770;9.250;2022-12-07T14:08:01;4.70;99.90
67273;DHT22;54190;49.770;9.250;2022-12-07T14:10:35;4.70;99.90
67273;DHT22;54190;49.770;9.250;2022-12-07T14:13:18;4.70;99.90
67273;DHT22;54190;49.770;9.250;2022-12-07T14:15:50;4.70;99.90
67273;DHT22;54190;49.770;9.250;2022-12-07T14:18:39;4.70;99.90
67273;DHT22;54190;49.770;9.250;2022-12-07T14:21:18;4.70;99.90
67273;DHT22;54190;49.770;9.250;2022-12-07T14:23:45;4.70;99.90
67273;DHT22;54190;49.770;9.250;2022-12-07T14:26:16;4.70;99.90
67273;DHT22;54190;49.770;9.250;2022-12-07T14:28:44;4.70;99.90
67273;DHT22;54190;49.770;9.250;2022-12-07T14:31:18;4.70;99.90
67273;DHT22;54190;49.770;9.250;2022-12-07T14:33:45;4.70;99.90
67273;DHT22;54190;49.770;9.250;2022-12-07T14:36:12;4.70;99.90
67273;DHT22;54190;49.770;9.250;2022-12-07T14:38:38;4.70;99.90
67273;DHT22;54190;49.770;9.250;2022-12-07T14:41:06;4.60;99.90
67273;DHT22;54190;49.770;9.250;2022-12-07T14:43:54;4.60;99.90
67273;DHT22;54190;49.770;9.250;2022-12-07T14:46:19;4.60;99.90
67273;DHT22;54190;49.770;9.250;2022-12-07T14:48:45;4.60;99.90
67273;DHT22;54190;49.770;9.250;2022-12-07T14:51:12;4.60;99.90
67273;DHT22;54190;49.770;9.250;2022-12-07T14:53:42;4.60;99.90
67273;DHT22;54190;49.770;9.250;2022-12-07T14:56:09;4.50;99.90
67273;DHT22;54190;49.770;9.250;2022-12-07T14:58:35;4.50;99.90
67273;DHT22;54190;49.770;9.250;2022-12-07T15:01:00;4.50;99.90
67273;DHT22;54190;49.770;9.250;2022-12-07T15:03:26;4.50;99.90
67273;DHT22;54190;49.770;9.250;2022-12-07T15:05:52;4.40;99.90
67273;DHT22;54190;49.770;9.250;2022-12-07T15:08:18;4.30;99.90
67273;DHT22;54190;49.770;9.250;2022-12-07T15:10:44;4.30;99.90
67273;DHT22;54190;49.770;9.250;2022-12-07T15:13:09;4.20;99.90
67273;DHT22;54190;49.770;9.250;2022-12-07T15:15:54;4.30;99.90
67273;DHT22;54190;49.770;9.250;2022-12-07T15:18:22;4.30;99.90
67273;DHT22;54190;49.770;9.250;2022-12-07T15:20:48;4.30;99.90
67273;DHT22;54190;49.770;9.250;2022-12-07T15:23:14;4.20;99.90
67273;DHT22;54190;49.770;9.250;2022-12-07T15:25:44;4.20;99.90
67273;DHT22;54190;49.770;9.250;2022-12-07T15:28:10;4.20;99.90
67273;DHT22;54190;49.770;9.250;2022-12-07T15:30:43;4.20;99.90
67273;DHT22;54190;49.770;9.250;2022-12-07T15:33:09;4.20;99.90
67273;DHT22;54190;49.770;9.250;2022-12-07T15:35:42;4.20;99.90
67273;DHT22;54190;49.770;9.250;2022-12-07T15:38:08;4.20;99.90
67273;DHT22;54190;49.770;9.250;2022-12-07T15:40:34;4.10;99.90
67273;DHT22;54190;49.770;9.250;2022-12-07T15:43:00;4.10;99.90
67273;DHT22;54190;49.770;9.250;2022-12-07T15:45:26;4.10;99.90
67273;DHT22;54190;49.770;9.250;2022-12-07T15:47:52;4.00;99.90
67273;DHT22;54190;49.770;9.250;2022-12-07T15:50:20;4.00;99.90
67273;DHT22;54190;49.770;9.250;2022-12-07T15:52:45;4.00;99.90
67273;DHT22;54190;49.770;9.250;2022-12-07T15:55:11;4.00;99.90
67273;DHT22;54190;49.770;9.250;2022-12-07T15:57:38;4.00;99.90
67273;DHT22;54190;49.770;9.250;2022-12-07T16:00:05;4.00;99.90
67273;DHT22;54190;49.770;9.250;2022-12-07T16:02:31;4.00;99.90
67273;DHT22;54190;49.770;9.250;2022-12-07T16:04:57;4.00;99.90
67273;DHT22;54190;49.770;9.250;2022-12-07T16:07:23;3.90;99.90
67273;DHT22;54190;49.770;9.250;2022-12-07T16:09:49;3.90;99.90
67273;DHT22;54190;49.770;9.250;2022-12-07T16:12:18;3.90;99.90
67273;DHT22;54190;49.770;9.250;2022-12-07T16:14:43;3.90;99.90
67273;DHT22;54190;49.770;9.250;2022-12-07T16:17:10;3.90;99.90
67273;DHT22;54190;49.770;9.250;2022-12-07T16:19:36;4.00;99.90
67273;DHT22;54190;49.770;9.250;2022-12-07T16:22:02;4.00;99.90
67273;DHT22;54190;49.770;9.250;2022-12-07T16:24:28;3.90;99.90
67273;DHT22;54190;49.770;9.250;2022-12-07T16:26:54;3.90;99.90
67273;DHT22;54190;49.770;9.250;2022-12-07T16:29:21;3.90;99.90
67273;DHT22;54190;49.770;9.250;2022-12-07T16:31:48;4.00;99.90
67273;DHT22;54190;49.770;9.250;2022-12-07T16:34:14;4.00;99.90
67273;DHT22;54190;49.770;9.250;2022-12-07T16:36:40;4.00;99.90
67273;DHT22;54190;49.770;9.250;2022-12-07T16:39:06;4.00;99.90
67273;DHT22;54190;49.770;9.250;2022-12-07T16:41:32;4.00;99.90
67273;DHT22;54190;49.770;9.250;2022-12-07T16:44:06;4.00;99.90
67273;DHT22;54190;49.770;9.250;2022-12-07T16:46:33;4.00;99.90
67273;DHT22;54190;49.770;9.250;2022-12-07T16:48:59;4.00;99.90
67273;DHT22;54190;49.770;9.250;2022-12-07T16:51:25;4.00;99.90
67273;DHT22;54190;49.770;9.250;2022-12-07T16:53:53;4.00;99.90
67273;DHT22;54190;49.770;9.250;2022-12-07T16:56:19;4.00;99.90
67273;DHT22;54190;49.770;9.250;2022-12-07T16:58:45;4.00;99.90
67273;DHT22;54190;49.770;9.250;2022-12-07T17:01:21;4.00;99.90
67273;DHT22;54190;49.770;9.250;2022-12-07T17:03:48;4.00;99.90
67273;DHT22;54190;49.770;9.250;2022-12-07T17:06:15;4.00;99.90
67273;DHT22;54190;49.770;9.250;2022-12-07T17:08:41;4.00;99.90
67273;DHT22;54190;49.770;9.250;2022-12-07T17:11:16;4.00;99.90
67273;DHT22;54190;49.770;9.250;2022-12-07T17:13:42;4.00;99.90
67273;DHT22;54190;49.770;9.250;2022-12-07T17:16:26;4.00;99.90
67273;DHT22;54190;49.770;9.250;2022-12-07T17:18:52;4.00;99.90
67273;DHT22;54190;49.770;9.250;2022-12-07T17:21:18;3.90;99.90
67273;DHT22;54190;49.770;9.250;2022-12-07T17:23:44;3.90;99.90
67273;DHT22;54190;49.770;9.250;2022-12-07T17:26:14;3.90;99.90
67273;DHT22;54190;49.770;9.250;2022-12-07T17:28:41;3.90;99.90
67273;DHT22;54190;49.770;9.250;2022-12-07T17:31:09;3.90;99.90
67273;DHT22;54190;49.770;9.250;2022-12-07T17:33:35;3.80;99.90
67273;DHT22;54190;49.770;9.250;2022-12-07T17:36:16;3.80;99.90
67273;DHT22;54190;49.770;9.250;2022-12-07T17:38:42;3.80;99.90
67273;DHT22;54190;49.770;9.250;2022-12-07T17:41:17;3.80;99.90
67273;DHT22;54190;49.770;9.250;2022-12-07T17:44:05;3.80;99.90
67273;DHT22;54190;49.770;9.250;2022-12-07T17:46:31;3.80;99.90
67273;DHT22;54190;49.770;9.250;2022-12-07T17:48:58;3.80;99.90
67273;DHT22;54190;49.770;9.250;2022-12-07T17:51:24;3.80;99.90
67273;DHT22;54190;49.770;9.250;2022-12-07T17:54:09;3.90;99.90
67273;DHT22;54190;49.770;9.250;2022-12-07T17:56:36;3.90;99.90